Time;durP1;ratioP1;P1;durP2;ratioP2;P2;SDS_P1;SDS_P2;PMS_P1;PMS_P2;Temp;Humidity;BMP_temperature;BMP_pressure;BME280_temperature;BME280_humidity;BME280_pressure;Samples;Min_cycle;Max_cycle;Signal;HPM_P1;HPM_P2
2021/06/16 00:00:17;;;;;;;18.80;17.10;;;18.50;42.30;;;;;;4944325;29;20185;-56
2021/06/16 00:02:44;;;;;;;19.50;17.60;;;18.50;45.10;;;;;;4952272;29;20448;-58
2021/06/16 00:05:24;;;;;;;19.20;17.50;;;18.50;50.20;;;;;;4934916;29;20448;-57
2021/06/16 00:07:50;;;;;;;19.83;18.10;;;18.40;53.30;;;;;;4951772;29;20445;-58
2021/06/16 00:10:19;;;;;;;20.13;18.40;;;18.40;59.40;;;;;;4949959;29;21191;-58
2021/06/16 00:12:45;;;;;;;19.60;18.00;;;18.40;60.40;;;;;;4944625;29;20220;-58
2021/06/16 00:15:21;;;;;;;21.43;19.37;;;18.40;62.50;;;;;;4933870;29;20880;-58
2021/06/16 00:17:46;;;;;;;21.30;19.40;;;18.30;60.20;;;;;;4934106;29;20257;-57
2021/06/16 00:20:13;;;;;;;20.83;18.93;;;18.30;71.50;;;;;;4937705;29;20469;-58
2021/06/16 00:22:39;;;;;;;20.50;18.67;;;18.40;67.20;;;;;;4933989;29;20269;-56
2021/06/16 00:25:06;;;;;;;20.67;18.87;;;18.40;61.50;;;;;;4941106;29;20455;-56
2021/06/16 00:27:32;;;;;;;20.63;18.63;;;18.40;68.10;;;;;;4953375;29;20453;-55
2021/06/16 00:29:58;;;;;;;19.93;18.33;;;18.40;65.10;;;;;;4938831;29;20891;-58
2021/06/16 00:32:23;;;;;;;21.20;19.40;;;18.40;63.70;;;;;;4934102;29;20210;-58
2021/06/16 00:34:49;;;;;;;21.70;19.70;;;18.40;66.10;;;;;;4946063;28;20527;-59
2021/06/16 00:37:14;;;;;;;19.67;18.03;;;18.40;65.60;;;;;;4942232;29;20295;-58
2021/06/16 00:39:40;;;;;;;21.00;19.17;;;18.40;62.40;;;;;;4938671;28;20715;-58
2021/06/16 00:42:07;;;;;;;19.83;18.13;;;18.40;61.00;;;;;;4961560;28;20200;-58
2021/06/16 00:44:33;;;;;;;23.00;20.90;;;18.40;67.20;;;;;;4945023;28;20199;-56
2021/06/16 00:46:58;;;;;;;21.30;19.50;;;18.40;67.90;;;;;;4934520;29;20433;-59
2021/06/16 00:49:24;;;;;;;21.90;19.80;;;18.40;65.70;;;;;;4938927;29;20592;-59
2021/06/16 00:51:49;;;;;;;22.57;20.37;;;18.40;66.40;;;;;;4939201;29;20220;-59
2021/06/16 00:54:15;;;;;;;21.73;19.83;;;18.40;65.00;;;;;;4941105;29;20595;-58
2021/06/16 00:56:42;;;;;;;20.90;18.90;;;18.30;69.80;;;;;;4934743;29;20217;-59
2021/06/16 00:59:09;;;;;;;21.43;19.53;;;18.30;72.00;;;;;;4944586;28;20652;-56
2021/06/16 01:01:41;;;;;;;21.90;19.80;;;18.30;71.60;;;;;;4937661;29;20456;-57
2021/06/16 01:04:23;;;;;;;22.37;20.47;;;18.30;73.00;;;;;;4933294;29;20446;-58
2021/06/16 01:07:02;;;;;;;21.77;19.87;;;18.30;71.90;;;;;;4951594;28;20431;-58
2021/06/16 01:09:27;;;;;;;22.17;20.10;;;18.30;71.80;;;;;;4923857;28;20452;-57
2021/06/16 01:11:56;;;;;;;21.90;20.10;;;18.30;79.40;;;;;;4950548;29;20472;-59
2021/06/16 01:14:41;;;;;;;23.17;21.17;;;18.30;83.90;;;;;;4948311;29;20573;-58
2021/06/16 01:17:10;;;;;;;21.97;19.83;;;18.20;87.50;;;;;;4951480;29;20421;-57
2021/06/16 01:19:58;;;;;;;21.63;19.73;;;18.20;91.90;;;;;;4950375;29;20569;-58
2021/06/16 01:22:39;;;;;;;22.50;20.60;;;18.10;93.90;;;;;;4949649;29;20549;-57
2021/06/16 01:25:10;;;;;;;23.20;21.17;;;18.10;95.40;;;;;;4943755;29;20792;-56
2021/06/16 01:27:36;;;;;;;21.80;20.00;;;18.00;96.40;;;;;;4933090;29;20524;-57
2021/06/16 01:30:04;;;;;;;22.53;20.47;;;18.00;99.40;;;;;;4932102;29;20916;-58
2021/06/16 01:32:30;;;;;;;21.93;19.93;;;18.00;99.90;;;;;;4944682;29;20604;-57
2021/06/16 01:34:56;;;;;;;21.63;19.80;;;18.00;99.80;;;;;;4950565;29;20448;-57
2021/06/16 01:37:22;;;;;;;21.77;19.87;;;18.00;99.50;;;;;;4939295;29;20174;-57
2021/06/16 01:39:49;;;;;;;21.93;20.10;;;17.90;99.90;;;;;;4937714;28;20454;-56
2021/06/16 01:42:18;;;;;;;22.33;20.13;;;17.90;99.80;;;;;;4948995;28;20513;-57
2021/06/16 01:44:46;;;;;;;22.17;20.27;;;17.80;98.80;;;;;;4948973;28;20551;-57
2021/06/16 01:47:14;;;;;;;21.67;19.53;;;17.80;97.90;;;;;;4949074;28;20600;-57
2021/06/16 01:49:40;;;;;;;23.00;20.90;;;17.70;99.90;;;;;;4951554;29;20447;-56
2021/06/16 01:52:06;;;;;;;22.70;20.80;;;17.60;99.90;;;;;;4951749;29;20777;-56
2021/06/16 01:54:37;;;;;;;23.60;21.60;;;17.60;99.90;;;;;;4947460;29;20440;-57
2021/06/16 01:57:03;;;;;;;22.33;20.53;;;17.50;99.90;;;;;;4952825;28;20444;-57
2021/06/16 01:59:29;;;;;;;23.43;21.53;;;17.50;99.90;;;;;;4952450;28;20498;-57
2021/06/16 02:01:55;;;;;;;24.90;22.80;;;17.50;99.90;;;;;;4950106;28;20485;-55
2021/06/16 02:04:21;;;;;;;25.20;22.80;;;17.40;99.90;;;;;;4932276;29;20526;-57
2021/06/16 02:06:58;;;;;;;24.17;22.07;;;17.40;99.90;;;;;;4932376;29;20265;-57
2021/06/16 02:09:25;;;;;;;26.47;24.27;;;17.40;99.90;;;;;;4946733;28;20187;-57
2021/06/16 02:11:51;;;;;;;23.97;21.90;;;17.30;99.90;;;;;;4939336;28;20552;-57
2021/06/16 02:14:19;;;;;;;24.77;22.70;;;17.30;99.90;;;;;;4938089;28;20537;-57
2021/06/16 02:17:18;;;;;;;24.70;22.60;;;17.30;99.90;;;;;;4944153;29;20201;-57
2021/06/16 02:19:46;;;;;;;25.00;22.90;;;17.20;99.90;;;;;;4899747;29;20964;-58
2021/06/16 02:22:13;;;;;;;24.93;22.73;;;17.20;99.90;;;;;;4943924;29;20494;-56
2021/06/16 02:24:39;;;;;;;26.50;24.30;;;17.20;99.90;;;;;;4937337;29;20444;-56
2021/06/16 02:27:05;;;;;;;25.33;23.20;;;17.10;99.90;;;;;;4934965;29;20905;-57
2021/06/16 02:29:32;;;;;;;25.97;23.70;;;17.10;99.90;;;;;;4943431;29;20432;-57
2021/06/16 02:31:59;;;;;;;27.33;24.90;;;17.00;99.90;;;;;;4932329;29;20481;-55
2021/06/16 02:34:28;;;;;;;25.40;23.20;;;17.00;99.90;;;;;;4941704;28;20505;-57
2021/06/16 02:37:02;;;;;;;26.13;23.90;;;17.00;99.90;;;;;;4942625;29;20434;-57
2021/06/16 02:39:40;;;;;;;27.43;25.03;;;17.00;99.90;;;;;;4932127;29;20453;-57
2021/06/16 02:42:07;;;;;;;27.10;24.83;;;17.00;99.90;;;;;;4931981;29;20871;-56
2021/06/16 02:44:34;;;;;;;28.63;26.10;;;16.90;99.90;;;;;;4918211;29;20458;-53
2021/06/16 02:47:01;;;;;;;26.80;24.30;;;16.90;99.90;;;;;;4932125;29;20490;-57
2021/06/16 02:49:54;;;;;;;26.97;24.57;;;16.80;99.90;;;;;;4936962;29;20986;-54
2021/06/16 02:52:21;;;;;;;26.47;24.07;;;16.80;99.90;;;;;;4932216;29;20477;-56
2021/06/16 02:54:51;;;;;;;27.37;25.07;;;16.80;99.90;;;;;;4933336;29;20435;-57
2021/06/16 02:57:22;;;;;;;27.47;24.73;;;16.70;99.90;;;;;;4935592;29;20473;-53
2021/06/16 02:59:50;;;;;;;26.90;24.53;;;16.70;99.90;;;;;;4935658;29;20449;-52
2021/06/16 03:02:19;;;;;;;25.37;23.37;;;16.70;99.90;;;;;;4932822;29;20436;-58
2021/06/16 03:04:46;;;;;;;27.77;25.17;;;16.70;99.90;;;;;;4938898;29;20439;-57
2021/06/16 03:07:12;;;;;;;26.37;23.97;;;16.70;99.90;;;;;;4931981;29;20844;-56
2021/06/16 03:09:39;;;;;;;26.63;24.23;;;16.70;99.90;;;;;;4941015;29;20447;-58
2021/06/16 03:12:06;;;;;;;26.97;24.57;;;16.70;99.90;;;;;;4945741;29;20474;-57
2021/06/16 03:14:32;;;;;;;25.77;23.67;;;16.70;99.90;;;;;;4931320;29;20959;-55
2021/06/16 03:16:58;;;;;;;25.27;23.03;;;16.70;99.90;;;;;;4932522;29;20525;-57
2021/06/16 03:19:24;;;;;;;26.10;23.83;;;16.70;99.90;;;;;;4931145;29;20532;-57
2021/06/16 03:21:51;;;;;;;26.73;24.50;;;16.80;99.90;;;;;;4914297;29;20445;-57
2021/06/16 03:24:22;;;;;;;25.50;23.07;;;16.80;99.90;;;;;;4953494;29;20609;-58
2021/06/16 03:26:50;;;;;;;25.80;23.40;;;16.80;99.90;;;;;;4948057;29;20447;-55
2021/06/16 03:29:18;;;;;;;25.77;23.43;;;16.80;99.90;;;;;;4943609;29;20437;-57
2021/06/16 03:31:44;;;;;;;25.27;23.07;;;16.90;99.90;;;;;;4935690;29;20475;-57
2021/06/16 03:34:10;;;;;;;23.47;21.43;;;17.00;99.90;;;;;;4950863;29;20439;-56
2021/06/16 03:36:37;;;;;;;24.83;22.73;;;17.10;99.90;;;;;;4938261;29;20432;-56
2021/06/16 03:39:05;;;;;;;24.47;22.27;;;17.10;99.90;;;;;;4940154;29;20279;-58
2021/06/16 03:41:31;;;;;;;24.07;22.10;;;17.10;99.90;;;;;;4951442;29;20472;-58
2021/06/16 03:43:58;;;;;;;24.17;22.00;;;17.10;99.90;;;;;;4934944;29;20543;-57
2021/06/16 03:46:25;;;;;;;22.50;20.50;;;17.10;99.90;;;;;;4935508;29;20894;-57
2021/06/16 03:48:53;;;;;;;24.97;22.90;;;17.10;99.90;;;;;;4937452;29;20445;-57
2021/06/16 03:51:19;;;;;;;23.60;21.57;;;17.10;99.90;;;;;;4953767;29;20938;-58
2021/06/16 03:53:45;;;;;;;24.00;22.00;;;17.20;99.90;;;;;;4937122;29;20455;-57
2021/06/16 03:56:12;;;;;;;24.20;22.10;;;17.20;99.90;;;;;;4944516;29;20204;-58
2021/06/16 03:58:40;;;;;;;24.80;22.70;;;17.30;99.90;;;;;;4951030;28;20441;-58
2021/06/16 04:01:06;;;;;;;25.30;22.73;;;17.30;99.90;;;;;;4940768;28;20425;-56
2021/06/16 04:03:32;;;;;;;25.17;23.07;;;17.30;99.90;;;;;;4959604;28;20959;-57
2021/06/16 04:05:58;;;;;;;24.37;22.30;;;17.30;99.90;;;;;;4948122;28;20433;-57
2021/06/16 04:08:24;;;;;;;25.13;22.93;;;17.40;99.90;;;;;;4929801;28;21127;-58
2021/06/16 04:10:51;;;;;;;24.20;21.87;;;17.40;99.90;;;;;;4939072;29;20268;-59
2021/06/16 04:13:17;;;;;;;23.87;21.90;;;17.40;99.90;;;;;;4929416;29;20490;-59
2021/06/16 04:15:43;;;;;;;25.57;23.37;;;17.40;99.90;;;;;;4938467;29;20559;-58
2021/06/16 04:18:09;;;;;;;26.70;24.40;;;17.40;99.90;;;;;;4935647;28;20564;-58
2021/06/16 04:20:35;;;;;;;24.83;22.63;;;17.40;99.90;;;;;;4929815;28;20190;-59
2021/06/16 04:23:01;;;;;;;25.47;23.20;;;17.50;99.90;;;;;;4915246;29;20700;-58
2021/06/16 04:25:27;;;;;;;24.20;22.13;;;17.50;99.90;;;;;;4936968;28;20447;-58
2021/06/16 04:27:53;;;;;;;24.40;22.20;;;17.60;99.90;;;;;;4928582;29;20436;-56
2021/06/16 04:30:20;;;;;;;25.07;22.73;;;17.60;99.90;;;;;;4931354;28;20185;-58
2021/06/16 04:32:46;;;;;;;25.90;23.40;;;17.70;99.90;;;;;;4928248;29;20901;-55
2021/06/16 04:35:12;;;;;;;25.20;22.90;;;17.70;99.90;;;;;;4935963;28;20524;-57
2021/06/16 04:37:38;;;;;;;22.67;20.57;;;17.70;99.90;;;;;;4926120;29;20302;-59
2021/06/16 04:40:07;;;;;;;22.87;20.93;;;17.80;99.90;;;;;;4934255;28;20520;-58
2021/06/16 04:42:33;;;;;;;23.93;21.50;;;18.00;99.90;;;;;;4927860;28;20204;-57
2021/06/16 04:44:58;;;;;;;23.70;21.70;;;18.10;98.20;;;;;;4932891;29;20425;-56
2021/06/16 04:47:24;;;;;;;23.13;21.07;;;18.20;94.60;;;;;;4937577;28;20203;-57
2021/06/16 04:49:49;;;;;;;23.80;21.70;;;18.30;93.20;;;;;;4938447;29;20207;-57
2021/06/16 04:52:15;;;;;;;24.77;22.37;;;18.40;90.10;;;;;;4944445;29;20206;-58
2021/06/16 04:54:40;;;;;;;22.93;20.83;;;18.40;89.30;;;;;;4933529;29;20182;-57
2021/06/16 04:57:06;;;;;;;24.30;21.90;;;18.50;80.10;;;;;;4936442;29;20197;-57
2021/06/16 04:59:33;;;;;;;24.27;22.10;;;18.50;83.20;;;;;;4943924;29;20197;-58
2021/06/16 05:02:00;;;;;;;23.53;21.40;;;18.40;85.70;;;;;;4935302;28;20541;-55
2021/06/16 05:04:26;;;;;;;23.60;21.57;;;18.50;82.50;;;;;;4932877;29;20426;-56
2021/06/16 05:06:53;;;;;;;24.50;22.10;;;18.70;70.30;;;;;;4932672;29;20892;-54
2021/06/16 05:09:18;;;;;;;24.70;22.60;;;18.60;73.20;;;;;;4935399;29;20785;-56
2021/06/16 05:11:44;;;;;;;26.07;23.77;;;18.60;76.00;;;;;;4939275;29;20465;-53
2021/06/16 05:14:10;;;;;;;25.00;22.90;;;18.40;83.50;;;;;;4937763;28;20174;-57
2021/06/16 05:16:35;;;;;;;25.13;23.10;;;18.40;91.40;;;;;;4934248;29;20221;-56
2021/06/16 05:19:02;;;;;;;25.53;23.33;;;18.40;91.20;;;;;;4934032;29;20229;-55
2021/06/16 05:21:28;;;;;;;24.90;22.70;;;18.50;92.90;;;;;;4937109;29;20182;-53
2021/06/16 05:23:54;;;;;;;24.10;22.10;;;18.60;92.30;;;;;;4932724;29;20444;-56
2021/06/16 05:26:20;;;;;;;25.80;23.50;;;18.70;86.90;;;;;;4940791;29;20920;-57
2021/06/16 05:28:45;;;;;;;25.93;23.60;;;18.80;70.80;;;;;;4933917;29;20956;-52
2021/06/16 05:31:11;;;;;;;25.73;23.43;;;18.60;79.90;;;;;;4933744;29;20807;-56
2021/06/16 05:33:37;;;;;;;26.17;23.80;;;18.70;82.40;;;;;;4945364;29;20632;-56
2021/06/16 05:36:04;;;;;;;24.77;22.67;;;18.80;82.30;;;;;;4935323;29;20200;-58
2021/06/16 05:38:30;;;;;;;25.03;22.93;;;19.00;68.10;;;;;;4934238;28;20462;-57
2021/06/16 05:40:59;;;;;;;25.70;23.37;;;19.10;59.00;;;;;;4933178;29;20451;-55
2021/06/16 05:43:24;;;;;;;23.73;21.53;;;19.20;54.10;;;;;;4940190;29;20576;-58
2021/06/16 05:45:50;;;;;;;24.40;22.00;;;19.40;51.10;;;;;;4932674;29;20422;-58
2021/06/16 05:48:15;;;;;;;24.87;22.60;;;19.40;44.40;;;;;;4939834;29;20182;-58
2021/06/16 05:50:41;;;;;;;23.13;20.93;;;19.50;45.60;;;;;;4933669;29;20192;-58
2021/06/16 05:53:10;;;;;;;23.70;21.60;;;19.60;40.00;;;;;;4932784;29;20217;-59
2021/06/16 05:55:35;;;;;;;24.00;22.00;;;19.70;35.50;;;;;;4942134;29;20215;-59
2021/06/16 05:58:01;;;;;;;24.10;21.80;;;19.70;35.60;;;;;;4938581;29;21055;-57
2021/06/16 06:00:26;;;;;;;25.73;23.53;;;19.60;40.20;;;;;;4946928;28;20194;-59
2021/06/16 06:02:52;;;;;;;23.20;21.10;;;19.80;38.20;;;;;;4937109;28;20688;-57
2021/06/16 06:05:18;;;;;;;25.57;23.10;;;19.90;30.70;;;;;;4933791;29;20912;-58
2021/06/16 06:07:43;;;;;;;25.07;22.93;;;19.80;31.50;;;;;;4933740;29;20696;-57
2021/06/16 06:10:09;;;;;;;22.93;21.03;;;20.00;31.40;;;;;;4933215;29;20220;-57
2021/06/16 06:12:35;;;;;;;21.80;19.80;;;20.20;23.80;;;;;;4933795;29;20205;-59
2021/06/16 06:15:00;;;;;;;21.57;19.77;;;20.50;16.70;;;;;;4948925;29;20424;-58
2021/06/16 06:17:26;;;;;;;22.37;20.53;;;20.60;13.70;;;;;;4937155;29;20224;-55
2021/06/16 06:19:52;;;;;;;23.40;21.40;;;20.50;9.20;;;;;;4941234;29;20184;-58
2021/06/16 06:22:17;;;;;;;22.13;20.17;;;20.60;12.10;;;;;;4950830;29;20498;-58
2021/06/16 06:24:43;;;;;;;21.57;19.73;;;20.70;7.60;;;;;;4944303;29;20664;-59
2021/06/16 06:27:08;;;;;;;21.57;19.57;;;20.90;6.00;;;;;;4943689;29;20192;-58
2021/06/16 06:29:34;;;;;;;20.37;18.57;;;21.00;1.20;;;;;;4950340;29;20192;-59
2021/06/16 06:32:00;;;;;;;21.63;19.60;;;21.20;1.00;;;;;;4933022;29;20296;-59
2021/06/16 06:34:25;;;;;;;21.33;19.63;;;21.50;1.00;;;;;;4947133;28;20200;-58
2021/06/16 06:36:54;;;;;;;20.97;19.20;;;21.70;1.00;;;;;;4950734;28;20912;-59
2021/06/16 06:39:20;;;;;;;22.30;20.40;;;21.80;1.00;;;;;;4949315;29;20208;-58
2021/06/16 06:41:45;;;;;;;20.60;18.87;;;22.00;1.00;;;;;;4944681;29;20502;-59
2021/06/16 06:44:11;;;;;;;23.33;21.37;;;22.30;1.00;;;;;;4944123;29;20670;-59
2021/06/16 06:46:36;;;;;;;22.87;20.77;;;22.40;1.00;;;;;;4949451;29;20192;-59
2021/06/16 06:49:02;;;;;;;21.40;19.50;;;22.50;1.00;;;;;;4949852;29;20186;-60
2021/06/16 06:51:28;;;;;;;20.83;19.20;;;22.50;1.00;;;;;;4942447;29;20206;-56
2021/06/16 06:53:57;;;;;;;19.63;18.03;;;22.50;1.00;;;;;;4931973;29;20772;-58
2021/06/16 06:56:23;;;;;;;19.53;17.97;;;22.70;1.00;;;;;;4931192;29;20213;-58
2021/06/16 06:58:48;;;;;;;21.83;20.00;;;22.90;1.00;;;;;;4937555;29;20449;-57
2021/06/16 07:01:14;;;;;;;22.30;20.27;;;23.00;1.00;;;;;;4937709;29;20627;-58
2021/06/16 07:03:42;;;;;;;19.37;17.90;;;23.10;1.00;;;;;;4936085;29;20580;-55
2021/06/16 07:06:08;;;;;;;20.23;18.40;;;23.20;1.00;;;;;;4935191;29;20182;-58
2021/06/16 07:08:33;;;;;;;18.80;17.30;;;23.30;1.00;;;;;;4931721;29;20986;-60
2021/06/16 07:10:59;;;;;;;18.83;17.33;;;23.40;1.00;;;;;;4933029;29;20190;-53
2021/06/16 07:13:24;;;;;;;20.57;18.87;;;23.50;1.00;;;;;;4934642;29;20214;-58
2021/06/16 07:15:50;;;;;;;18.80;17.10;;;23.60;1.00;;;;;;4933464;29;20182;-55
2021/06/16 07:18:15;;;;;;;18.97;17.30;;;23.80;1.00;;;;;;4945091;29;20229;-55
2021/06/16 07:20:42;;;;;;;18.37;16.77;;;23.80;1.00;;;;;;4951040;29;20185;-53
2021/06/16 07:23:07;;;;;;;17.50;16.20;;;24.00;1.00;;;;;;4951720;29;20690;-53
2021/06/16 07:25:33;;;;;;;18.40;17.00;;;24.20;1.00;;;;;;4952703;28;20428;-56
2021/06/16 07:27:59;;;;;;;19.17;17.63;;;24.30;1.00;;;;;;4953361;29;20197;-57
2021/06/16 07:30:24;;;;;;;18.57;17.17;;;24.50;1.00;;;;;;4947837;29;20186;-58
2021/06/16 07:32:52;;;;;;;18.87;17.33;;;24.60;1.00;;;;;;4952813;29;20209;-57
2021/06/16 07:35:18;;;;;;;19.73;18.13;;;24.70;1.00;;;;;;4935682;29;20237;-55
2021/06/16 07:37:44;;;;;;;17.33;15.83;;;24.70;1.00;;;;;;4947018;28;20510;-55
2021/06/16 07:40:10;;;;;;;18.80;17.20;;;24.90;1.00;;;;;;4952676;29;21138;-54
2021/06/16 07:42:41;;;;;;;18.70;17.20;;;24.90;99.90;;;;;;4952929;29;20439;-57
2021/06/16 07:45:08;;;;;;;18.80;17.33;;;24.90;1.00;;;;;;4941824;29;21015;-57
2021/06/16 07:47:34;;;;;;;19.40;17.60;;;24.90;99.90;;;;;;4947574;29;20436;-57
2021/06/16 07:50:00;;;;;;;18.10;16.60;;;25.00;99.90;;;;;;4952131;29;20421;-58
2021/06/16 07:52:27;;;;;;;19.47;17.70;;;25.10;99.90;;;;;;4952711;29;20245;-57
2021/06/16 07:54:53;;;;;;;19.30;17.80;;;25.30;51.90;;;;;;4952464;29;20288;-57
2021/06/16 07:57:19;;;;;;;18.70;17.10;;;25.20;1.00;;;;;;4953196;29;20414;-59
2021/06/16 07:59:45;;;;;;;19.80;18.17;;;25.10;99.90;;;;;;4939166;29;21303;-57
2021/06/16 08:02:10;;;;;;;19.10;17.47;;;25.20;99.90;;;;;;4949201;28;20211;-53
2021/06/16 08:04:41;;;;;;;17.60;16.20;;;25.40;1.00;;;;;;4951978;29;20177;-56
2021/06/16 08:07:11;;;;;;;17.83;16.43;;;25.60;1.00;;;;;;4941185;29;20288;-55
2021/06/16 08:09:42;;;;;;;16.80;15.57;;;25.90;1.00;;;;;;4939029;28;20433;-58
2021/06/16 08:12:12;;;;;;;15.93;14.83;;;26.00;1.00;;;;;;4945548;29;20457;-56
2021/06/16 08:14:39;;;;;;;16.43;14.87;;;26.20;1.00;;;;;;4946499;28;20476;-56
2021/06/16 08:17:06;;;;;;;16.70;15.40;;;26.40;1.00;;;;;;4940300;29;21189;-55
2021/06/16 08:19:33;;;;;;;16.87;15.57;;;26.70;1.00;;;;;;4952254;29;20425;-57
2021/06/16 08:21:58;;;;;;;16.77;15.47;;;26.70;1.00;;;;;;4946986;29;20434;-57
2021/06/16 08:24:25;;;;;;;17.20;15.90;;;27.00;99.90;;;;;;4947229;29;20451;-55
2021/06/16 08:26:51;;;;;;;15.33;14.03;;;27.30;99.90;;;;;;4949129;29;20190;-58
2021/06/16 08:29:16;;;;;;;15.47;14.27;;;27.30;13.00;;;;;;4950662;29;20468;-58
2021/06/16 08:31:42;;;;;;;15.20;13.93;;;27.40;1.00;;;;;;4951869;28;20553;-56
2021/06/16 08:34:08;;;;;;;15.87;14.60;;;27.40;99.90;;;;;;4943733;29;20617;-56
2021/06/16 08:36:33;;;;;;;15.33;14.30;;;27.40;65.60;;;;;;4939032;28;20240;-54
2021/06/16 08:38:59;;;;;;;15.77;14.57;;;27.70;1.00;;;;;;4940842;29;20551;-58
2021/06/16 08:41:26;;;;;;;15.47;14.10;;;27.80;1.00;;;;;;4933334;29;20977;-56
2021/06/16 08:43:52;;;;;;;14.80;13.60;;;28.00;99.90;;;;;;4934121;29;20190;-56
2021/06/16 08:46:19;;;;;;;15.50;14.27;;;28.10;99.90;;;;;;4919116;29;20433;-56
2021/06/16 08:48:45;;;;;;;14.90;13.87;;;28.10;99.90;;;;;;4935710;29;20181;-58
2021/06/16 08:51:13;;;;;;;16.47;15.10;;;28.30;99.90;;;;;;4939829;29;20938;-58
2021/06/16 08:53:40;;;;;;;15.40;14.07;;;28.30;99.90;;;;;;4935811;29;20433;-58
2021/06/16 08:56:06;;;;;;;15.37;14.37;;;28.50;1.00;;;;;;4932396;29;21073;-57
2021/06/16 08:58:42;;;;;;;15.70;14.40;;;28.80;99.90;;;;;;4939094;29;20505;-57
2021/06/16 09:01:11;;;;;;;15.43;14.33;;;28.90;1.00;;;;;;4938029;28;20425;-52
2021/06/16 09:03:38;;;;;;;14.73;13.63;;;29.10;1.00;;;;;;4938195;29;20440;-52
2021/06/16 09:06:11;;;;;;;14.70;13.50;;;29.20;1.00;;;;;;4932310;29;20500;-58
2021/06/16 09:09:09;;;;;;;14.10;13.10;;;29.60;1.00;;;;;;4932482;29;20859;-56
2021/06/16 09:11:43;;;;;;;14.50;13.30;;;29.70;1.00;;;;;;4899652;29;20521;-56
2021/06/16 09:14:11;;;;;;;15.50;14.10;;;29.80;1.00;;;;;;4947685;29;20438;-57
2021/06/16 09:16:36;;;;;;;14.60;13.43;;;30.00;1.00;;;;;;4932828;29;20441;-56
2021/06/16 09:19:02;;;;;;;14.87;13.80;;;29.90;1.00;;;;;;4931855;29;20470;-56
2021/06/16 09:21:36;;;;;;;14.23;13.23;;;30.20;1.00;;;;;;4931330;29;20221;-52
2021/06/16 09:24:02;;;;;;;14.97;13.90;;;30.40;1.00;;;;;;4932058;29;20217;-57
2021/06/16 09:26:38;;;;;;;13.90;12.97;;;30.50;1.00;;;;;;4933233;29;20429;-57
2021/06/16 09:29:04;;;;;;;12.83;12.03;;;30.70;1.00;;;;;;4933566;29;20465;-56
2021/06/16 09:31:45;;;;;;;13.90;13.00;;;31.20;99.90;;;;;;4932778;28;22091;-54
2021/06/16 09:34:16;;;;;;;12.93;12.03;;;31.60;99.90;;;;;;4951192;29;20448;-57
2021/06/16 09:36:55;;;;;;;12.33;11.43;;;32.20;99.90;;;;;;4949802;28;20431;-56
2021/06/16 09:39:24;;;;;;;13.80;12.70;;;32.90;99.90;;;;;;4940223;29;20431;-57
2021/06/16 09:42:14;;;;;;;13.40;12.60;;;32.70;99.90;;;;;;4931401;29;20455;-59
2021/06/16 09:44:50;;;;;;;13.07;12.07;;;32.80;99.90;;;;;;4944644;29;20443;-57
2021/06/16 09:47:22;;;;;;;14.53;13.43;;;32.50;99.90;;;;;;4940886;29;20432;-58
2021/06/16 09:49:49;;;;;;;12.77;11.97;;;32.80;99.90;;;;;;4950072;29;20980;-58
2021/06/16 09:52:38;;;;;;;13.80;12.80;;;33.10;99.90;;;;;;4931395;29;21559;-58
2021/06/16 09:55:30;;;;;;;14.37;13.47;;;33.60;99.90;;;;;;4918251;29;20426;-58
2021/06/16 09:58:09;;;;;;;14.90;13.90;;;33.70;99.90;;;;;;4942058;29;20422;-58
2021/06/16 10:00:46;;;;;;;12.50;11.60;;;34.00;99.90;;;;;;4950935;28;20496;-55
2021/06/16 10:03:36;;;;;;;14.03;13.03;;;34.10;99.90;;;;;;4940543;29;20496;-58
2021/06/16 10:06:02;;;;;;;13.13;12.13;;;34.60;99.90;;;;;;4931948;29;20418;-57
2021/06/16 10:08:29;;;;;;;14.80;13.27;;;34.90;99.90;;;;;;4931655;29;20398;-57
2021/06/16 10:10:54;;;;;;;12.90;11.93;;;34.90;99.90;;;;;;4945624;28;20463;-58
2021/06/16 10:13:21;;;;;;;13.30;12.40;;;34.90;99.90;;;;;;4930389;29;20473;-58
2021/06/16 10:15:47;;;;;;;14.10;13.23;;;35.30;99.90;;;;;;4948379;28;20259;-58
2021/06/16 10:18:13;;;;;;;14.70;13.63;;;35.90;99.90;;;;;;4923940;29;20989;-58
2021/06/16 10:20:38;;;;;;;13.27;12.43;;;36.00;99.90;;;;;;4948948;29;20436;-58
2021/06/16 10:23:04;;;;;;;13.27;12.37;;;36.00;99.90;;;;;;4950743;29;20188;-59
2021/06/16 10:25:32;;;;;;;13.60;12.73;;;36.30;99.90;;;;;;4936727;29;20273;-59
2021/06/16 10:28:02;;;;;;;14.90;14.00;;;36.30;99.90;;;;;;4915002;29;20334;-58
2021/06/16 10:30:33;;;;;;;13.33;12.50;;;36.40;99.90;;;;;;4932298;29;20521;-58
2021/06/16 10:33:00;;;;;;;14.00;13.20;;;36.70;99.90;;;;;;4933043;29;20984;-58
2021/06/16 10:35:35;;;;;;;13.27;12.30;;;37.00;99.90;;;;;;4935127;29;20457;-57
2021/06/16 10:38:12;;;;;;;13.40;12.50;;;36.80;99.90;;;;;;4945178;28;20423;-58
2021/06/16 10:40:52;;;;;;;13.90;12.90;;;37.00;99.90;;;;;;4955800;28;20428;-57
2021/06/16 10:43:20;;;;;;;14.30;13.40;;;37.20;99.90;;;;;;4942901;29;20764;-55
2021/06/16 10:46:01;;;;;;;13.40;12.60;;;37.20;99.90;;;;;;4939141;29;21103;-58
2021/06/16 10:48:51;;;;;;;12.60;11.90;;;37.30;99.90;;;;;;4934549;29;20438;-58
2021/06/16 10:51:38;;;;;;;13.90;13.10;;;37.60;99.90;;;;;;4939417;29;20916;-56
2021/06/16 10:54:20;;;;;;;13.23;12.37;;;38.00;99.90;;;;;;4939368;28;20508;-56
2021/06/16 10:56:57;;;;;;;14.37;13.37;;;38.10;99.90;;;;;;4935314;29;20425;-57
2021/06/16 10:59:45;;;;;;;13.33;12.60;;;38.00;99.90;;;;;;4948500;29;20698;-57
2021/06/16 11:02:16;;;;;;;12.50;11.80;;;38.60;99.90;;;;;;4953294;28;20466;-57
2021/06/16 11:04:42;;;;;;;12.80;12.00;;;38.90;99.90;;;;;;4936817;29;20443;-56
2021/06/16 11:07:27;;;;;;;12.20;11.40;;;38.80;99.90;;;;;;4934761;29;21000;-57
2021/06/16 11:09:54;;;;;;;13.03;12.23;;;38.90;99.90;;;;;;4936770;28;20452;-56
2021/06/16 11:12:37;;;;;;;11.40;10.80;;;38.90;99.90;;;;;;4936511;29;20469;-57
2021/06/16 11:15:13;;;;;;;11.90;11.20;;;38.70;99.90;;;;;;4938134;29;20410;-57
2021/06/16 11:17:43;;;;;;;13.53;12.63;;;39.10;99.90;;;;;;4934304;29;20468;-58
2021/06/16 11:20:14;;;;;;;13.40;12.60;;;39.00;99.90;;;;;;4934253;29;20444;-58
2021/06/16 11:22:54;;;;;;;13.23;12.40;;;39.00;99.90;;;;;;4949617;29;20409;-59
2021/06/16 11:25:29;;;;;;;13.30;12.40;;;39.40;99.90;;;;;;4953204;29;20887;-58
2021/06/16 11:27:55;;;;;;;12.32;11.60;;;39.50;99.90;;;;;;4948564;29;20489;-58
2021/06/16 11:30:33;;;;;;;12.97;12.17;;;40.20;99.90;;;;;;4935257;29;20339;-59
2021/06/16 11:33:17;;;;;;;12.73;12.00;;;40.10;99.90;;;;;;4933911;29;20217;-59
2021/06/16 11:35:55;;;;;;;13.00;12.20;;;40.10;99.90;;;;;;4934263;29;20422;-58
2021/06/16 11:38:21;;;;;;;12.90;12.10;;;40.60;99.90;;;;;;4933507;29;20410;-58
2021/06/16 11:41:03;;;;;;;12.37;11.63;;;40.80;99.90;;;;;;4935763;29;20932;-59
2021/06/16 11:43:36;;;;;;;12.53;11.77;;;40.60;99.90;;;;;;4932712;29;20262;-59
2021/06/16 11:46:05;;;;;;;12.17;11.57;;;40.00;99.90;;;;;;4933789;29;20920;-57
2021/06/16 11:48:30;;;;;;;11.30;10.70;;;39.40;99.90;;;;;;4952553;29;20439;-57
2021/06/16 11:50:56;;;;;;;11.70;11.10;;;39.60;99.90;;;;;;4949655;29;20424;-58
2021/06/16 11:53:30;;;;;;;13.40;12.40;;;39.90;99.90;;;;;;4935534;29;20229;-59
2021/06/16 11:55:58;;;;;;;12.60;11.80;;;40.00;99.90;;;;;;4933608;29;20189;-59
2021/06/16 11:58:32;;;;;;;13.50;12.70;;;40.30;99.90;;;;;;4932997;29;20452;-58
2021/06/16 12:01:11;;;;;;;12.20;11.53;;;40.10;99.90;;;;;;4942996;28;20421;-58
2021/06/16 12:03:58;;;;;;;12.57;11.87;;;40.30;99.90;;;;;;4936690;28;20798;-58
2021/06/16 12:06:23;;;;;;;11.50;10.90;;;40.50;99.90;;;;;;4932783;29;20484;-58
2021/06/16 12:08:56;;;;;;;12.50;11.60;;;40.40;99.90;;;;;;4934303;29;20178;-58
2021/06/16 12:11:26;;;;;;;11.60;10.70;;;40.10;99.90;;;;;;4941039;29;20186;-58
2021/06/16 12:14:05;;;;;;;12.83;12.03;;;40.40;99.90;;;;;;4947213;28;20756;-59
2021/06/16 12:16:36;;;;;;;12.60;11.90;;;40.80;99.90;;;;;;4944578;28;20409;-58
2021/06/16 12:19:17;;;;;;;12.73;12.03;;;40.90;99.90;;;;;;4917467;29;20520;-59
2021/06/16 12:22:04;;;;;;;12.27;11.57;;;40.50;99.90;;;;;;4941008;29;21221;-58
2021/06/16 12:24:35;;;;;;;12.90;12.20;;;40.40;99.90;;;;;;4940462;29;20417;-58
2021/06/16 12:27:15;;;;;;;11.93;11.33;;;40.50;99.90;;;;;;4939934;29;20912;-58
2021/06/16 12:29:53;;;;;;;12.37;11.67;;;41.00;99.90;;;;;;4938542;29;20448;-59
2021/06/16 12:32:37;;;;;;;12.52;11.77;;;41.10;99.90;;;;;;4938978;29;20552;-58
2021/06/16 12:35:18;;;;;;;12.27;11.67;;;41.00;99.90;;;;;;4942650;29;20177;-58
2021/06/16 12:37:46;;;;;;;13.30;12.57;;;40.70;99.90;;;;;;4940686;29;20847;-58